Аэропорт: Братск. Братск

ICAO: UIBB

METAR:
2018/05/20 19:30
UIBB 201930Z AUTO 00000MPS 9999 // NCD M02/M05 Q1017 RMK QFE720/0960
METAR:
2018/05/20 18:24
TAF UIBB 201700Z 2018/2118 26006G14MPS 9999 BKN014CB 
      TEMPO 2021/2112 1200 SHSNRA